createdAt,value
2019-01-06T00:00:37.228Z,88.75
2019-01-06T00:01:37.502Z,88.66
2019-01-06T00:02:37.276Z,88.56
2019-01-06T00:03:37.291Z,88.46
2019-01-06T00:04:37.301Z,88.75
2019-01-06T00:05:37.319Z,88.56
2019-01-06T00:06:37.340Z,88.56
2019-01-06T00:07:37.624Z,88.75
2019-01-06T00:08:37.629Z,88.75
2019-01-06T00:09:37.406Z,88.56
2019-01-06T00:10:37.672Z,88.56
2019-01-06T00:11:37.424Z,88.56
2019-01-06T00:12:37.444Z,88.56
2019-01-06T00:13:37.735Z,88.56
2019-01-06T00:14:37.650Z,88.75
2019-01-06T00:15:37.502Z,88.56
2019-01-06T00:16:37.786Z,88.56
2019-01-06T00:17:37.542Z,88.56
2019-01-06T00:18:37.816Z,88.75
2019-01-06T00:19:37.573Z,88.56
2019-01-06T00:20:37.855Z,88.56
2019-01-06T00:21:37.616Z,88.37
2019-01-06T00:22:37.623Z,88.56
2019-01-06T00:23:37.904Z,88.37
2019-01-06T00:24:37.673Z,88.37
2019-01-06T00:25:37.689Z,88.46
2019-01-06T00:26:37.698Z,88.37
2019-01-06T00:27:37.716Z,88.56
2019-01-06T00:28:38.009Z,88.28
2019-01-06T00:29:37.765Z,88.18
2019-01-06T00:30:37.780Z,88.46
2019-01-06T00:31:37.801Z,88.56
2019-01-06T00:32:37.819Z,88.46
2019-01-06T00:33:38.086Z,88.37
2019-01-06T00:34:38.111Z,88.37
2019-01-06T00:35:38.120Z,88.37
2019-01-06T00:36:38.138Z,88.46
2019-01-06T00:37:38.169Z,88.46
2019-01-06T00:38:37.917Z,88.46
2019-01-06T00:39:37.938Z,88.37
2019-01-06T00:40:37.952Z,88.46
2019-01-06T00:41:37.970Z,88.37
2019-01-06T00:42:38.070Z,88.37
2019-01-06T00:43:38.265Z,88.37
2019-01-06T00:44:38.294Z,88.37
2019-01-06T00:45:38.047Z,88.46
2019-01-06T00:46:38.323Z,88.46
2019-01-06T00:47:38.084Z,88.18
2019-01-06T00:48:38.098Z,88.56
2019-01-06T00:49:38.114Z,88.18
2019-01-06T00:50:38.135Z,88.46
2019-01-06T00:51:38.165Z,88.56
2019-01-06T00:52:38.182Z,88.18
2019-01-06T00:53:38.447Z,88.37
2019-01-06T00:54:38.285Z,88.37
2019-01-06T00:55:38.226Z,88.56
2019-01-06T00:56:38.245Z,88.46
2019-01-06T00:57:38.268Z,88.56
2019-01-06T00:58:38.545Z,88.18
2019-01-06T00:59:38.309Z,88.42
2019-01-06T01:00:38.571Z,88.56
2019-01-06T01:01:38.592Z,88.37
2019-01-06T01:02:38.594Z,88.46
2019-01-06T01:03:38.375Z,88.37
2019-01-06T01:04:38.409Z,88.28
2019-01-06T01:05:38.661Z,88.46
2019-01-06T01:06:38.430Z,88.37
2019-01-06T01:07:38.704Z,88.46
2019-01-06T01:08:38.719Z,88.28
2019-01-06T01:09:38.489Z,88.37
2019-01-06T01:10:38.496Z,88.37
2019-01-06T01:11:38.524Z,88.46
2019-01-06T01:12:38.532Z,88.37
2019-01-06T01:13:38.557Z,88.37
2019-01-06T01:14:38.825Z,88.46
2019-01-06T01:15:38.842Z,88.56
2019-01-06T01:16:38.865Z,88.56
2019-01-06T01:17:38.625Z,88.56
2019-01-06T01:18:38.647Z,88.66
2019-01-06T01:19:38.665Z,88.94
2019-01-06T01:20:38.681Z,88.85
2019-01-06T01:21:38.696Z,88.94
2019-01-06T01:22:38.976Z,88.56
2019-01-06T01:23:38.989Z,88.18
2019-01-06T01:24:39.019Z,88.56
2019-01-06T01:25:38.768Z,88.37
2019-01-06T01:26:38.794Z,88.46
2019-01-06T01:27:38.813Z,88.56
2019-01-06T01:28:38.836Z,88.37
2019-01-06T01:29:38.839Z,88.37
2019-01-06T01:30:39.118Z,88.37
2019-01-06T01:31:38.884Z,88.37
2019-01-06T01:32:39.161Z,88.52
2019-01-06T01:33:39.171Z,88.56
2019-01-06T01:34:38.928Z,88.37
2019-01-06T01:35:38.948Z,88.46
2019-01-06T01:36:38.969Z,88.56
2019-01-06T01:37:38.986Z,88.56
2019-01-06T01:38:39.007Z,88.56
2019-01-06T01:39:39.029Z,88.37
2019-01-06T01:40:39.045Z,88.46
2019-01-06T01:41:39.315Z,88.85
2019-01-06T01:42:39.087Z,88.56
2019-01-06T01:43:39.353Z,88.66
2019-01-06T01:44:39.369Z,88.28
2019-01-06T01:45:39.395Z,88.66
2019-01-06T01:46:39.151Z,88.37
2019-01-06T01:47:39.172Z,88.66
2019-01-06T01:48:39.184Z,88.75
2019-01-06T01:49:39.462Z,88.37
2019-01-06T01:50:39.230Z,88.75
2019-01-06T01:51:39.291Z,88.46
2019-01-06T01:52:39.523Z,88.66
2019-01-06T01:53:39.545Z,88.66
2019-01-06T01:54:39.293Z,88.66
2019-01-06T01:55:39.313Z,88.56
2019-01-06T01:56:39.342Z,88.66
2019-01-06T01:57:39.346Z,88.66
2019-01-06T01:58:39.622Z,88.61
2019-01-06T01:59:39.651Z,88.85
2019-01-06T02:00:39.664Z,88.75
2019-01-06T02:01:39.433Z,88.75
2019-01-06T02:02:39.709Z,88.66
2019-01-06T02:03:39.727Z,88.75
2019-01-06T02:04:39.481Z,88.94
2019-01-06T02:05:39.491Z,88.85
2019-01-06T02:06:39.516Z,88.85
2019-01-06T02:07:39.788Z,88.75
2019-01-06T02:08:39.805Z,88.75
2019-01-06T02:09:39.823Z,88.75
2019-01-06T02:10:39.843Z,88.75
2019-01-06T02:11:39.865Z,88.94
2019-01-06T02:12:39.882Z,88.75
2019-01-06T02:13:39.639Z,88.94
2019-01-06T02:14:39.660Z,88.94
2019-01-06T02:15:39.673Z,88.94
2019-01-06T02:16:39.694Z,88.94
2019-01-06T02:17:39.969Z,88.94
2019-01-06T02:18:39.735Z,88.94
2019-01-06T02:19:39.759Z,88.94
2019-01-06T02:20:40.034Z,88.94
2019-01-06T02:21:40.046Z,88.94
2019-01-06T02:22:39.798Z,88.9
2019-01-06T02:23:39.825Z,88.94
2019-01-06T02:24:40.100Z,88.66
2019-01-06T02:25:40.115Z,88.94
2019-01-06T02:26:39.879Z,88.94
2019-01-06T02:27:40.155Z,88.85
2019-01-06T02:28:39.910Z,88.85
2019-01-06T02:29:39.928Z,88.85
2019-01-06T02:30:40.219Z,88.94
2019-01-06T02:31:40.245Z,88.75
2019-01-06T02:32:39.987Z,88.85
2019-01-06T02:33:40.275Z,88.94
2019-01-06T02:34:40.049Z,88.85
2019-01-06T02:35:40.047Z,89.04
2019-01-06T02:36:40.315Z,88.94
2019-01-06T02:37:40.073Z,88.85
2019-01-06T02:38:40.364Z,88.94
2019-01-06T02:39:40.382Z,88.94
2019-01-06T02:40:40.429Z,88.94
2019-01-06T02:41:40.144Z,88.9
2019-01-06T02:42:40.182Z,88.66
2019-01-06T02:43:40.188Z,88.94
2019-01-06T02:44:40.204Z,88.94
2019-01-06T02:45:40.219Z,88.94
2019-01-06T02:46:40.497Z,88.94
2019-01-06T02:47:40.520Z,88.94
2019-01-06T02:48:40.537Z,88.94
2019-01-06T02:49:40.291Z,88.66
2019-01-06T02:50:40.309Z,88.46
2019-01-06T02:51:40.330Z,88.94
2019-01-06T02:52:40.347Z,88.66
2019-01-06T02:53:40.368Z,88.94
2019-01-06T02:54:40.387Z,88.75
2019-01-06T02:55:40.657Z,88.75
2019-01-06T02:56:40.675Z,88.94
2019-01-06T02:57:40.694Z,88.94
2019-01-06T02:58:40.712Z,88.56
2019-01-06T02:59:40.737Z,88.66
2019-01-06T03:00:40.766Z,89.14
2019-01-06T03:01:40.507Z,88.94
2019-01-06T03:02:40.531Z,88.75
2019-01-06T03:03:40.565Z,88.75
2019-01-06T03:04:40.577Z,88.75
2019-01-06T03:05:40.583Z,88.94
2019-01-06T03:06:40.857Z,88.75
2019-01-06T03:07:40.884Z,88.66
2019-01-06T03:08:40.904Z,88.66
2019-01-06T03:09:40.663Z,88.75
2019-01-06T03:10:40.933Z,88.75
2019-01-06T03:11:40.704Z,88.56
2019-01-06T03:12:40.970Z,88.75
2019-01-06T03:13:40.726Z,88.66
2019-01-06T03:14:40.752Z,88.66
2019-01-06T03:15:41.023Z,88.75
2019-01-06T03:16:41.050Z,88.75
2019-01-06T03:17:40.810Z,88.94
2019-01-06T03:18:40.815Z,88.75
2019-01-06T03:19:41.098Z,88.71
2019-01-06T03:20:40.853Z,88.94
2019-01-06T03:21:40.881Z,88.56
2019-01-06T03:22:41.145Z,88.9
2019-01-06T03:23:40.908Z,88.94
2019-01-06T03:24:40.926Z,88.94
2019-01-06T03:25:40.945Z,88.94
2019-01-06T03:26:40.973Z,88.75
2019-01-06T03:27:41.015Z,89.04
2019-01-06T03:28:41.275Z,88.75
2019-01-06T03:29:41.281Z,88.75
2019-01-06T03:30:41.311Z,89.14
2019-01-06T03:31:41.091Z,88.94
2019-01-06T03:32:41.367Z,88.94
2019-01-06T03:33:41.113Z,88.94
2019-01-06T03:34:41.106Z,88.94
2019-01-06T03:35:41.124Z,88.94
2019-01-06T03:36:41.146Z,88.94
2019-01-06T03:37:41.160Z,88.66
2019-01-06T03:38:41.187Z,88.75
2019-01-06T03:39:41.208Z,88.94
2019-01-06T03:40:41.229Z,88.94
2019-01-06T03:41:41.489Z,88.94
2019-01-06T03:42:41.510Z,89.14
2019-01-06T03:43:41.549Z,89.14
2019-01-06T03:44:41.562Z,88.85
2019-01-06T03:45:41.308Z,89.14
2019-01-06T03:46:41.333Z,89.14
2019-01-06T03:47:41.343Z,89.32
2019-01-06T03:48:41.362Z,89.32
2019-01-06T03:49:41.384Z,89.42
2019-01-06T03:50:41.656Z,89.42
2019-01-06T03:51:42.293Z,89.42
2019-01-06T03:52:41.693Z,89.42
2019-01-06T03:53:41.725Z,89.04
2019-01-06T03:54:41.728Z,89.51
2019-01-06T03:55:41.757Z,89.42
2019-01-06T03:56:41.769Z,89.28
2019-01-06T03:57:41.534Z,89.23
2019-01-06T03:58:41.552Z,89.23
2019-01-06T03:59:41.584Z,89.23
2019-01-06T04:00:41.590Z,89.32
2019-01-06T04:01:41.609Z,89.42
2019-01-06T04:02:41.878Z,89.32
2019-01-06T04:03:41.910Z,89.37
2019-01-06T04:04:41.907Z,89.32
2019-01-06T04:05:41.678Z,89.04
2019-01-06T04:06:41.691Z,89.42
2019-01-06T04:07:41.706Z,89.42
2019-01-06T04:08:41.733Z,89.32
2019-01-06T04:09:42.001Z,89.04
2019-01-06T04:10:42.023Z,89.04
2019-01-06T04:11:42.043Z,89.04
2019-01-06T04:12:41.796Z,89.04
2019-01-06T04:13:41.820Z,89.04
2019-01-06T04:14:41.848Z,89.04
2019-01-06T04:15:41.865Z,89.28
2019-01-06T04:16:41.879Z,89.42
2019-01-06T04:17:41.898Z,89.42
2019-01-06T04:18:41.907Z,89.42
2019-01-06T04:19:42.189Z,89.42
2019-01-06T04:20:42.209Z,89.32
2019-01-06T04:21:41.966Z,88.66
2019-01-06T04:22:41.987Z,89.14
2019-01-06T04:23:42.005Z,89.14
2019-01-06T04:24:42.025Z,89.18
2019-01-06T04:25:42.032Z,89.14
2019-01-06T04:26:42.352Z,88.85
2019-01-06T04:27:42.333Z,88.85
2019-01-06T04:28:42.359Z,89.32
2019-01-06T04:29:42.131Z,89.42
2019-01-06T04:30:42.211Z,89.32
2019-01-06T04:31:42.498Z,89.37
2019-01-06T04:32:42.160Z,89.42
2019-01-06T04:33:42.177Z,89.32
2019-01-06T04:34:42.193Z,89.04
2019-01-06T04:35:42.215Z,89.32
2019-01-06T04:36:42.288Z,89.28
2019-01-06T04:37:42.516Z,89.09
2019-01-06T04:38:42.523Z,89.23
2019-01-06T04:39:42.300Z,89.32
2019-01-06T04:40:42.639Z,89.32
2019-01-06T04:41:42.321Z,88.75
2019-01-06T04:42:42.605Z,89.14
2019-01-06T04:43:42.357Z,89.23
2019-01-06T04:44:42.397Z,89.14
2019-01-06T04:45:42.405Z,89.23
2019-01-06T04:46:42.419Z,89.23
2019-01-06T04:47:42.432Z,89.23
2019-01-06T04:48:42.706Z,89.23
2019-01-06T04:49:42.726Z,89.14
2019-01-06T04:50:42.760Z,89.23
2019-01-06T04:51:42.765Z,89.23
2019-01-06T04:52:42.523Z,89.14
2019-01-06T04:53:42.540Z,89.32
2019-01-06T04:54:42.557Z,89.32
2019-01-06T04:55:42.588Z,89.14
2019-01-06T04:56:42.598Z,89.32
2019-01-06T04:57:42.873Z,88.85
2019-01-06T04:58:42.889Z,89.14
2019-01-06T04:59:42.904Z,89.14
2019-01-06T05:00:42.673Z,89.32
2019-01-06T05:01:42.776Z,89.14
2019-01-06T05:02:42.961Z,89.14
2019-01-06T05:03:42.721Z,89.23
2019-01-06T05:04:42.743Z,89.14
2019-01-06T05:05:42.760Z,89.23
2019-01-06T05:06:42.782Z,89.23
2019-01-06T05:07:42.796Z,89.32
2019-01-06T05:08:43.078Z,89.23
2019-01-06T05:09:43.092Z,89.23
2019-01-06T05:10:43.108Z,89.04
2019-01-06T05:11:43.133Z,89.23
2019-01-06T05:12:43.151Z,89.14
2019-01-06T05:13:42.911Z,89.04
2019-01-06T05:14:42.919Z,89.23
2019-01-06T05:15:42.939Z,89.23
2019-01-06T05:16:42.960Z,89.04
2019-01-06T05:17:42.982Z,89.14
2019-01-06T05:18:43.003Z,89.04
2019-01-06T05:19:43.272Z,89.14
2019-01-06T05:20:43.295Z,89.32
2019-01-06T05:21:43.056Z,89.04
2019-01-06T05:22:43.325Z,89.14
2019-01-06T05:23:43.099Z,89.42
2019-01-06T05:24:43.105Z,89.32
2019-01-06T05:25:43.121Z,89.14
2019-01-06T05:26:43.139Z,89.32
2019-01-06T05:27:43.169Z,89.32
2019-01-06T05:28:43.172Z,89.23
2019-01-06T05:29:43.203Z,89.23
2019-01-06T05:30:43.221Z,89.04
2019-01-06T05:31:43.494Z,89.04
2019-01-06T05:32:43.265Z,89.04
2019-01-06T05:33:43.267Z,89.23
2019-01-06T05:34:43.555Z,89.23
2019-01-06T05:35:43.559Z,89.42
2019-01-06T05:36:43.579Z,89.32
2019-01-06T05:37:43.355Z,89.14
2019-01-06T05:38:43.621Z,88.85
2019-01-06T05:39:43.643Z,89.23
2019-01-06T05:40:43.662Z,89.32
2019-01-06T05:41:43.414Z,89.14
2019-01-06T05:42:43.430Z,89.32
2019-01-06T05:43:43.450Z,89.23
2019-01-06T05:44:43.471Z,89.23
2019-01-06T05:45:43.524Z,89.32
2019-01-06T05:46:43.500Z,89.32
2019-01-06T05:47:43.527Z,89.32
2019-01-06T05:48:43.539Z,89.32
2019-01-06T05:49:43.556Z,89.32
2019-01-06T05:50:43.830Z,89.32
2019-01-06T05:51:43.590Z,89.32
2019-01-06T05:52:43.873Z,89.32
2019-01-06T05:53:43.888Z,89.14
2019-01-06T05:54:43.913Z,89.14
2019-01-06T05:55:43.668Z,89.14
2019-01-06T05:56:43.949Z,89.32
2019-01-06T05:57:43.704Z,89.32
2019-01-06T05:58:43.722Z,89.32
2019-01-06T05:59:43.737Z,89.14
2019-01-06T06:00:43.756Z,89.14
2019-01-06T06:01:43.777Z,89.32
2019-01-06T06:02:43.801Z,89.14
2019-01-06T06:03:43.812Z,89.14
2019-01-06T06:04:43.835Z,89.14
2019-01-06T06:05:44.112Z,89.09
2019-01-06T06:06:44.125Z,89.32
2019-01-06T06:07:44.143Z,89.14
2019-01-06T06:08:44.160Z,89.14
2019-01-06T06:09:44.179Z,89.14
2019-01-06T06:10:44.196Z,89.14
2019-01-06T06:11:43.963Z,89.42
2019-01-06T06:12:43.976Z,89.32
2019-01-06T06:13:43.998Z,89.23
2019-01-06T06:14:44.283Z,89.32
2019-01-06T06:15:44.028Z,89.14
2019-01-06T06:16:44.307Z,89.32
2019-01-06T06:17:44.075Z,89.42
2019-01-06T06:18:44.340Z,89.23
2019-01-06T06:19:44.360Z,89.51
2019-01-06T06:20:44.121Z,89.23
2019-01-06T06:21:44.406Z,89.14
2019-01-06T06:22:44.154Z,89.32
2019-01-06T06:23:44.172Z,89.32
2019-01-06T06:24:44.217Z,89.23
2019-01-06T06:25:44.210Z,89.14
2019-01-06T06:26:44.487Z,89.14
2019-01-06T06:27:44.507Z,89.32
2019-01-06T06:28:44.521Z,89.23
2019-01-06T06:29:44.287Z,89.32
2019-01-06T06:30:44.302Z,89.51
2019-01-06T06:31:44.570Z,89.32
2019-01-06T06:32:44.343Z,89.32
2019-01-06T06:33:44.625Z,89.32
2019-01-06T06:34:44.375Z,89.14
2019-01-06T06:35:44.399Z,89.28
2019-01-06T06:36:44.423Z,89.32
2019-01-06T06:37:44.684Z,89.23
2019-01-06T06:38:44.704Z,89.23
2019-01-06T06:39:44.730Z,89.14
2019-01-06T06:40:44.743Z,89.14
2019-01-06T06:41:44.773Z,89.14
2019-01-06T06:42:44.527Z,89.32
2019-01-06T06:43:44.538Z,89.51
2019-01-06T06:44:44.561Z,89.42
2019-01-06T06:45:44.586Z,89.23
2019-01-06T06:46:44.591Z,89.51
2019-01-06T06:47:44.873Z,89.14
2019-01-06T06:48:44.890Z,89.32
2019-01-06T06:49:44.902Z,89.23
2019-01-06T06:50:44.930Z,89.23
2019-01-06T06:51:44.684Z,89.14
2019-01-06T06:52:44.707Z,89.14
2019-01-06T06:53:44.993Z,89.32
2019-01-06T06:54:44.739Z,89.14
2019-01-06T06:55:44.758Z,89.14
2019-01-06T06:56:44.772Z,89.14
2019-01-06T06:57:45.048Z,89.32
2019-01-06T06:58:45.066Z,89.32
2019-01-06T06:59:45.086Z,89.14
2019-01-06T07:00:45.102Z,89.14
2019-01-06T07:01:44.868Z,89.14
2019-01-06T07:02:45.141Z,89.14
2019-01-06T07:03:44.899Z,89.14
2019-01-06T07:04:45.178Z,89.14
2019-01-06T07:05:44.936Z,89.23
2019-01-06T07:06:45.216Z,89.14
2019-01-06T07:07:45.248Z,89.14
2019-01-06T07:08:44.997Z,89.32
2019-01-06T07:09:45.067Z,89.09
2019-01-06T07:10:45.288Z,89.14
2019-01-06T07:11:45.197Z,88.85
2019-01-06T07:12:45.064Z,89.32
2019-01-06T07:13:45.347Z,89.32
2019-01-06T07:14:45.356Z,88.85
2019-01-06T07:15:45.381Z,89.14
2019-01-06T07:16:45.405Z,89.32
2019-01-06T07:17:45.157Z,88.75
2019-01-06T07:18:45.170Z,89.14
2019-01-06T07:19:45.189Z,89.09
2019-01-06T07:20:45.208Z,89.14
2019-01-06T07:21:45.227Z,89.32
2019-01-06T07:22:45.505Z,89.32
2019-01-06T07:23:45.270Z,88.94
2019-01-06T07:24:45.286Z,89
2019-01-06T07:25:45.300Z,89
2019-01-06T07:26:45.318Z,89.04
2019-01-06T07:27:46.453Z,89.04
2019-01-06T07:28:45.352Z,89.04
2019-01-06T07:29:45.629Z,88.94
2019-01-06T07:30:45.648Z,89.04
2019-01-06T07:31:45.678Z,88.94
2019-01-06T07:32:45.431Z,89.04
2019-01-06T07:33:45.446Z,88.94
2019-01-06T07:34:45.716Z,89.32
2019-01-06T07:35:45.487Z,89.14
2019-01-06T07:36:45.753Z,89.32
2019-01-06T07:37:45.774Z,89.32
2019-01-06T07:38:45.815Z,89.14
2019-01-06T07:39:45.553Z,89.32
2019-01-06T07:40:45.567Z,89.32
2019-01-06T07:41:45.594Z,89.32
2019-01-06T07:42:45.869Z,89.32
2019-01-06T07:43:45.633Z,89.32
2019-01-06T07:44:45.900Z,89.32
2019-01-06T07:45:45.920Z,89.23
2019-01-06T07:46:45.938Z,89.23
2019-01-06T07:47:45.965Z,89.23
2019-01-06T07:48:45.719Z,89.32
2019-01-06T07:49:45.735Z,89.14
2019-01-06T07:50:45.757Z,89.32
2019-01-06T07:51:47.451Z,89.32
2019-01-06T07:52:46.045Z,89.14
2019-01-06T07:53:46.067Z,89.32
2019-01-06T07:54:45.826Z,89.14
2019-01-06T07:55:45.846Z,89.32
2019-01-06T07:56:47.531Z,89.32
2019-01-06T07:57:45.877Z,89.04
2019-01-06T07:58:45.912Z,89.32
2019-01-06T07:59:45.916Z,89.32
2019-01-06T08:00:46.191Z,89.32
2019-01-06T08:01:45.961Z,89.14
2019-01-06T08:02:46.243Z,89.32
2019-01-06T08:03:45.990Z,89.32
2019-01-06T08:04:46.004Z,89.32
2019-01-06T08:05:46.029Z,89.14
2019-01-06T08:06:46.303Z,89.23
2019-01-06T08:07:46.326Z,89.23
2019-01-06T08:08:46.075Z,89.32
2019-01-06T08:09:46.095Z,89.32
2019-01-06T08:10:46.111Z,89.32
2019-01-06T08:11:46.138Z,89.14
2019-01-06T08:12:46.414Z,89.32
2019-01-06T08:13:46.166Z,89.23
2019-01-06T08:14:46.188Z,89.23
2019-01-06T08:15:46.205Z,89.23
2019-01-06T08:16:46.480Z,89.32
2019-01-06T08:17:46.239Z,89.32
2019-01-06T08:18:46.257Z,89.51
2019-01-06T08:19:46.273Z,89.51
2019-01-06T08:20:46.548Z,89.51
2019-01-06T08:21:46.573Z,89.42
2019-01-06T08:22:46.600Z,89.42
2019-01-06T08:23:46.616Z,89.42
2019-01-06T08:24:46.368Z,89.23
2019-01-06T08:25:46.649Z,89.14
2019-01-06T08:26:46.408Z,89.14
2019-01-06T08:27:46.675Z,89.42
2019-01-06T08:28:46.442Z,89.23
2019-01-06T08:29:46.453Z,89.23
2019-01-06T08:30:46.730Z,89.32
2019-01-06T08:31:46.749Z,89.51
2019-01-06T08:32:46.512Z,89.42
2019-01-06T08:33:46.527Z,89.32
2019-01-06T08:34:46.556Z,89.32
2019-01-06T08:35:46.827Z,89.23
2019-01-06T08:36:46.842Z,89.42
2019-01-06T08:37:46.599Z,89.14
2019-01-06T08:38:46.616Z,89.14
2019-01-06T08:39:46.639Z,89.14
2019-01-06T08:40:46.665Z,88.75
2019-01-06T08:41:46.673Z,88.75
2019-01-06T08:42:46.951Z,88.94
2019-01-06T08:43:46.705Z,88.75
2019-01-06T08:44:46.726Z,88.75
2019-01-06T08:45:47.012Z,88.75
2019-01-06T08:46:47.016Z,88.75
2019-01-06T08:47:47.038Z,88.75
2019-01-06T08:48:46.802Z,88.75
2019-01-06T08:49:46.818Z,88.56
2019-01-06T08:50:47.091Z,88.94
2019-01-06T08:51:47.114Z,88.66
2019-01-06T08:52:46.872Z,88.75
2019-01-06T08:53:46.885Z,88.75
2019-01-06T08:54:46.917Z,88.75
2019-01-06T08:55:46.926Z,88.75
2019-01-06T08:56:46.944Z,88.56
2019-01-06T08:57:46.960Z,88.56
2019-01-06T08:58:47.237Z,88.94
2019-01-06T08:59:46.996Z,88.85
2019-01-06T09:00:47.026Z,88.94
2019-01-06T09:01:47.295Z,88.75
2019-01-06T09:02:47.311Z,88.75
2019-01-06T09:03:47.328Z,88.75
2019-01-06T09:04:47.352Z,88.94
2019-01-06T09:05:47.102Z,88.94
2019-01-06T09:06:47.126Z,88.94
2019-01-06T09:07:47.149Z,88.75
2019-01-06T09:08:47.432Z,88.75
2019-01-06T09:09:48.260Z,88.75
2019-01-06T09:10:47.464Z,88.46
2019-01-06T09:11:47.481Z,88.37
2019-01-06T09:12:47.626Z,88.56
2019-01-06T09:13:47.248Z,88.56
2019-01-06T09:14:47.276Z,88.94
2019-01-06T09:15:47.545Z,88.37
2019-01-06T09:16:47.310Z,88.75
2019-01-06T09:17:47.325Z,88.66
2019-01-06T09:18:47.346Z,88.37
2019-01-06T09:19:52.679Z,88.56
2019-01-06T09:20:47.638Z,88.56
2019-01-06T09:21:47.655Z,88.66
2019-01-06T09:22:47.414Z,88.56
2019-01-06T09:23:48.736Z,88.85
2019-01-06T09:24:47.454Z,88.37
2019-01-06T09:25:47.479Z,88.56
2019-01-06T09:26:47.741Z,88.46
2019-01-06T09:27:47.765Z,88.18
2019-01-06T09:28:47.814Z,88.46
2019-01-06T09:29:48.617Z,88.46
2019-01-06T09:30:47.832Z,88.46
2019-01-06T09:31:47.594Z,88.46
2019-01-06T09:32:47.603Z,88.46
2019-01-06T09:33:47.622Z,88.56
2019-01-06T09:34:47.890Z,88.75
2019-01-06T09:35:47.918Z,88.56
2019-01-06T09:36:47.665Z,88.75
2019-01-06T09:37:47.683Z,88.75
2019-01-06T09:38:47.703Z,88.56
2019-01-06T09:39:47.728Z,88.56
2019-01-06T09:40:50.037Z,88.75
2019-01-06T09:41:48.012Z,88.46
2019-01-06T09:42:48.031Z,88.75
2019-01-06T09:43:48.069Z,88.56
2019-01-06T09:44:47.820Z,88.56
2019-01-06T09:45:47.830Z,88.56
2019-01-06T09:46:49.284Z,88.66
2019-01-06T09:47:47.879Z,88.66
2019-01-06T09:48:47.893Z,88.75
2019-01-06T09:49:47.900Z,88.56
2019-01-06T09:50:48.177Z,88.56
2019-01-06T09:51:48.215Z,88.75
2019-01-06T09:52:47.955Z,88.56
2019-01-06T09:53:47.984Z,88.85
2019-01-06T09:54:48.005Z,88.56
2019-01-06T09:55:48.268Z,88.46
2019-01-06T09:56:48.283Z,88.37
2019-01-06T09:57:48.057Z,88.56
2019-01-06T09:58:48.069Z,88.56
2019-01-06T09:59:48.086Z,88.56
2019-01-06T10:00:48.100Z,88.56
2019-01-06T10:01:48.381Z,88.75
2019-01-06T10:02:48.915Z,88.56
2019-01-06T10:03:48.413Z,88.56
2019-01-06T10:04:48.174Z,88.75
2019-01-06T10:05:48.466Z,88.75
2019-01-06T10:06:48.208Z,88.56
2019-01-06T10:07:48.225Z,88.66
2019-01-06T10:08:48.551Z,88.75
2019-01-06T10:09:48.269Z,88.56
2019-01-06T10:10:48.553Z,88.94
2019-01-06T10:11:48.298Z,88.66
2019-01-06T10:12:48.321Z,88.75
2019-01-06T10:13:48.642Z,88.56
2019-01-06T10:14:48.359Z,88.75
2019-01-06T10:15:48.627Z,88.56
2019-01-06T10:16:48.647Z,88.46
2019-01-06T10:17:48.408Z,87.99
2019-01-06T10:18:48.425Z,88.23
2019-01-06T10:19:48.443Z,88.23
2019-01-06T10:20:48.468Z,87.99
2019-01-06T10:21:48.755Z,88.09
2019-01-06T10:22:48.753Z,88.18
2019-01-06T10:23:48.519Z,87.65
2019-01-06T10:24:54.447Z,87.71
2019-01-06T10:25:48.553Z,87.9
2019-01-06T10:26:48.840Z,87.8
2019-01-06T10:27:48.590Z,87.9
2019-01-06T10:28:49.696Z,87.8
2019-01-06T10:29:48.897Z,88.09
2019-01-06T10:30:48.905Z,87.8
2019-01-06T10:31:48.920Z,87.71
2019-01-06T10:32:48.685Z,87.71
2019-01-06T10:33:48.850Z,88.13
2019-01-06T10:34:48.715Z,87.85
2019-01-06T10:35:48.733Z,87.85
2019-01-06T10:36:48.751Z,87.85
2019-01-06T10:37:48.768Z,88.23
2019-01-06T10:38:49.046Z,87.85
2019-01-06T10:39:48.813Z,87.85
2019-01-06T10:40:49.083Z,87.94
2019-01-06T10:41:48.998Z,87.94
2019-01-06T10:42:49.134Z,87.56
2019-01-06T10:43:48.878Z,87.94
2019-01-06T10:44:48.899Z,87.46
2019-01-06T10:45:48.917Z,87.37
2019-01-06T10:46:48.933Z,87.56
2019-01-06T10:47:49.214Z,87.56
2019-01-06T10:48:49.304Z,87.56
2019-01-06T10:49:49.251Z,87.27
2019-01-06T10:50:49.262Z,87.18
2019-01-06T10:51:49.021Z,87.18
2019-01-06T10:52:49.047Z,87.27
2019-01-06T10:53:49.111Z,87.56
2019-01-06T10:54:49.359Z,87.37
2019-01-06T10:55:49.095Z,87.56
2019-01-06T10:56:49.123Z,87.18
2019-01-06T10:57:49.391Z,87.23
2019-01-06T10:58:49.406Z,87.37
2019-01-06T10:59:49.425Z,87.46
2019-01-06T11:00:49.445Z,87.56
2019-01-06T11:01:49.203Z,87.65
2019-01-06T11:02:49.228Z,87.56
2019-01-06T11:03:49.244Z,87.27
2019-01-06T11:04:49.259Z,87.56
2019-01-06T11:05:49.283Z,87.37
2019-01-06T11:06:49.310Z,87.37
2019-01-06T11:07:49.314Z,87.46
2019-01-06T11:08:49.644Z,87.56
2019-01-06T11:09:49.369Z,86.9
2019-01-06T11:10:49.377Z,87.37
2019-01-06T11:11:49.645Z,87.37
2019-01-06T11:12:49.412Z,87.75
2019-01-06T11:13:49.481Z,87.65
2019-01-06T11:14:49.445Z,87.56
2019-01-06T11:15:49.468Z,87.08
2019-01-06T11:16:49.733Z,86.9
2019-01-06T11:17:49.495Z,87.18
2019-01-06T11:18:49.515Z,87.18
2019-01-06T11:19:49.531Z,87.08
2019-01-06T11:20:49.567Z,86.8
2019-01-06T11:21:49.582Z,87.18
2019-01-06T11:22:50.120Z,87.08
2019-01-06T11:23:49.606Z,87.08
2019-01-06T11:24:49.885Z,87.08
2019-01-06T11:25:49.641Z,87.18
2019-01-06T11:26:49.661Z,87.27
2019-01-06T11:27:49.975Z,87.27
2019-01-06T11:28:49.752Z,87.18
2019-01-06T11:29:49.984Z,87.27
2019-01-06T11:30:49.995Z,87.08
2019-01-06T11:31:49.759Z,87.27
2019-01-06T11:32:49.772Z,87.37
2019-01-06T11:33:49.839Z,87.37
2019-01-06T11:34:50.084Z,87.27
2019-01-06T11:35:49.837Z,87.27
2019-01-06T11:36:49.849Z,87.18
2019-01-06T11:37:49.865Z,87.37
2019-01-06T11:38:50.142Z,87.27
2019-01-06T11:39:50.157Z,87.27
2019-01-06T11:40:50.179Z,86.99
2019-01-06T11:41:50.190Z,87.37
2019-01-06T11:42:49.954Z,87.56
2019-01-06T11:43:49.971Z,87.37
2019-01-06T11:44:49.994Z,87.56
2019-01-06T11:45:50.281Z,86.99
2019-01-06T11:46:50.292Z,87.46
2019-01-06T11:47:50.308Z,87.08
2019-01-06T11:48:50.070Z,86.99
2019-01-06T11:49:50.340Z,87.18
2019-01-06T11:50:50.102Z,86.8
2019-01-06T11:51:50.123Z,87.18
2019-01-06T11:52:50.134Z,87.08
2019-01-06T11:53:50.156Z,87.18
2019-01-06T11:54:50.437Z,86.9
2019-01-06T11:55:50.454Z,86.99
2019-01-06T11:56:50.468Z,87.08
2019-01-06T11:57:50.486Z,87.18
2019-01-06T11:58:50.251Z,87.18
2019-01-06T11:59:50.266Z,87.37
2019-01-06T12:00:50.552Z,87.56
2019-01-06T12:01:50.303Z,87.56
2019-01-06T12:02:50.590Z,87.46
2019-01-06T12:03:50.340Z,87.08
2019-01-06T12:04:50.619Z,87.37
2019-01-06T12:05:50.637Z,86.99
2019-01-06T12:06:50.406Z,86.8
2019-01-06T12:07:50.671Z,87.37
2019-01-06T12:08:50.433Z,86.7
2019-01-06T12:09:50.449Z,86.9
2019-01-06T12:10:50.473Z,86.99
2019-01-06T12:11:50.487Z,86.8
2019-01-06T12:12:50.776Z,87.08
2019-01-06T12:13:50.541Z,87.18
2019-01-06T12:14:50.562Z,87.08
2019-01-06T12:15:50.560Z,86.8
2019-01-06T12:16:50.581Z,87.08
2019-01-06T12:17:50.596Z,87.37
2019-01-06T12:18:51.958Z,86.99
2019-01-06T12:19:50.647Z,86.99
2019-01-06T12:20:50.909Z,86.99
2019-01-06T12:21:50.927Z,86.9
2019-01-06T12:22:50.685Z,86.99
2019-01-06T12:23:50.713Z,86.99
2019-01-06T12:24:50.730Z,87.37
2019-01-06T12:25:50.742Z,87.37
2019-01-06T12:26:50.769Z,87.27
2019-01-06T12:27:51.040Z,87.18
2019-01-06T12:28:51.057Z,87.27
2019-01-06T12:29:51.076Z,87.56
2019-01-06T12:30:50.845Z,87.56
2019-01-06T12:31:51.111Z,87.37
2019-01-06T12:32:50.871Z,86.99
2019-01-06T12:33:50.898Z,87.56
2019-01-06T12:34:50.965Z,87.08
2019-01-06T12:35:51.190Z,87.37
2019-01-06T12:36:51.202Z,87.08
2019-01-06T12:37:51.218Z,87.56
2019-01-06T12:38:51.236Z,87.18
2019-01-06T12:39:51.262Z,87.18
2019-01-06T12:40:51.016Z,87.37
2019-01-06T12:41:51.042Z,87.27
2019-01-06T12:42:51.058Z,87.27
2019-01-06T12:43:51.331Z,87.18
2019-01-06T12:44:51.092Z,87.08
2019-01-06T12:45:51.372Z,86.99
2019-01-06T12:46:51.389Z,87.46
2019-01-06T12:47:51.151Z,87.37
2019-01-06T12:48:51.164Z,87.37
2019-01-06T12:49:51.235Z,87.37
2019-01-06T12:50:51.201Z,87.37
2019-01-06T12:51:51.223Z,87.46
2019-01-06T12:52:51.512Z,87.46
2019-01-06T12:53:51.270Z,87.37